createdAt,value
2022-08-17T00:01:31.359Z,16.30
2022-08-17T00:04:12.329Z,11.43
2022-08-17T00:06:43.347Z,12.43
2022-08-17T00:09:12.677Z,12.57
2022-08-17T00:12:03.894Z,12.70
2022-08-17T00:14:31.831Z,13.80
2022-08-17T00:16:58.853Z,11.83
2022-08-17T00:19:26.481Z,13.50
2022-08-17T00:22:32.472Z,12.23
2022-08-17T00:24:42.904Z,12.57
2022-08-17T00:27:09.378Z,13.23
2022-08-17T00:29:36.022Z,13.80
2022-08-17T00:33:15.123Z,15.30
2022-08-17T00:34:49.898Z,13.90
2022-08-17T00:37:16.691Z,13.47
2022-08-17T00:39:44.087Z,14.47
2022-08-17T00:42:18.457Z,14.43
2022-08-17T00:44:46.051Z,13.83
2022-08-17T00:47:12.627Z,15.33
2022-08-17T00:49:39.212Z,13.53
2022-08-17T00:52:15.464Z,12.83
2022-08-17T00:54:43.804Z,13.33
2022-08-17T00:57:30.078Z,12.90
2022-08-17T01:00:02.151Z,13.43
2022-08-17T01:02:36.676Z,11.80
2022-08-17T01:05:11.677Z,13.27
2022-08-17T01:07:38.681Z,12.60
2022-08-17T01:10:07.069Z,12.60
2022-08-17T01:12:35.440Z,15.03
2022-08-17T01:15:01.904Z,11.60
2022-08-17T01:17:28.623Z,13.80
2022-08-17T01:19:55.111Z,13.43
2022-08-17T01:22:25.892Z,13.27
2022-08-17T01:24:59.093Z,13.20
2022-08-17T01:27:26.688Z,15.27
2022-08-17T01:29:58.900Z,14.73
2022-08-17T01:32:26.911Z,14.83
2022-08-17T01:34:54.468Z,14.63
2022-08-17T01:37:28.645Z,17.07
2022-08-17T01:40:00.626Z,14.80
2022-08-17T01:42:52.153Z,14.47
2022-08-17T01:45:23.041Z,15.53
2022-08-17T01:47:51.016Z,15.77
2022-08-17T01:50:23.726Z,14.93
2022-08-17T01:52:55.667Z,14.83
2022-08-17T01:55:27.525Z,16.10
2022-08-17T01:57:54.060Z,15.80
2022-08-17T02:00:20.876Z,16.47
2022-08-17T02:02:47.618Z,14.70
2022-08-17T02:05:14.347Z,15.33
2022-08-17T02:07:55.989Z,16.67
2022-08-17T02:10:33.935Z,15.87
2022-08-17T02:13:03.601Z,15.57
2022-08-17T02:15:30.742Z,16.03
2022-08-17T02:17:57.286Z,17.53
2022-08-17T02:20:41.809Z,14.83
2022-08-17T02:23:10.871Z,15.67
2022-08-17T02:25:39.326Z,14.17
2022-08-17T02:28:05.899Z,15.13
2022-08-17T02:31:00.992Z,16.57
2022-08-17T02:33:20.222Z,15.10
2022-08-17T02:35:47.615Z,14.27
2022-08-17T02:38:14.211Z,16.17
2022-08-17T02:40:40.966Z,15.97
2022-08-17T02:43:08.802Z,14.93
2022-08-17T02:45:36.130Z,14.83
2022-08-17T02:48:03.378Z,13.40
2022-08-17T02:50:30.117Z,15.70
2022-08-17T02:53:01.828Z,14.47
2022-08-17T02:55:34.200Z,16.83
2022-08-17T02:58:01.582Z,14.87
2022-08-17T03:00:34.441Z,14.77
2022-08-17T03:03:01.887Z,15.20
2022-08-17T03:05:30.496Z,15.50
2022-08-17T03:07:57.615Z,16.90
2022-08-17T03:10:24.745Z,14.77
2022-08-17T03:12:52.593Z,15.23
2022-08-17T03:15:28.687Z,14.50
2022-08-17T03:17:56.661Z,14.47
2022-08-17T03:20:24.791Z,14.00
2022-08-17T03:22:53.944Z,14.93
2022-08-17T03:25:27.619Z,15.57
2022-08-17T03:27:56.638Z,14.00
2022-08-17T03:30:25.887Z,14.17
2022-08-17T03:32:54.882Z,15.10
2022-08-17T03:35:24.409Z,13.33
2022-08-17T03:37:59.970Z,14.47
2022-08-17T03:40:34.401Z,14.57
2022-08-17T03:43:15.593Z,15.27
2022-08-17T03:46:01.765Z,15.17
2022-08-17T03:48:46.660Z,15.10
2022-08-17T03:51:42.241Z,14.90
2022-08-17T03:54:28.884Z,14.77
2022-08-17T03:57:07.390Z,12.63
2022-08-17T03:59:35.465Z,14.30
2022-08-17T04:02:11.017Z,12.60
2022-08-17T04:04:38.121Z,13.87
2022-08-17T04:07:04.986Z,14.43
2022-08-17T04:09:31.724Z,13.33
2022-08-17T04:12:02.261Z,15.23
2022-08-17T04:14:36.668Z,14.13
2022-08-17T04:17:13.360Z,14.10
2022-08-17T04:19:40.023Z,17.00
2022-08-17T04:22:06.635Z,12.57
2022-08-17T04:24:34.391Z,12.83
2022-08-17T04:27:01.845Z,13.07
2022-08-17T04:29:28.326Z,12.83
2022-08-17T04:32:14.863Z,13.30
2022-08-17T04:34:41.720Z,13.43
2022-08-17T04:37:08.659Z,12.40
2022-08-17T04:39:35.347Z,12.37
2022-08-17T04:42:09.208Z,13.17
2022-08-17T04:44:37.859Z,11.83
2022-08-17T04:47:05.100Z,11.47
2022-08-17T04:49:32.534Z,15.10
2022-08-17T04:52:04.336Z,11.80
2022-08-17T04:54:31.489Z,11.43
2022-08-17T04:56:58.021Z,11.60
2022-08-17T04:59:24.545Z,11.67
2022-08-17T05:01:51.796Z,11.90
2022-08-17T05:04:35.166Z,12.27
2022-08-17T05:07:04.547Z,12.13
2022-08-17T05:09:31.577Z,11.60
2022-08-17T05:12:01.598Z,11.37
2022-08-17T05:14:33.082Z,11.00
2022-08-17T05:17:01.260Z,12.10
2022-08-17T05:19:28.805Z,12.43
2022-08-17T05:21:55.338Z,11.63
2022-08-17T05:24:42.478Z,11.23
2022-08-17T05:27:08.435Z,12.40
2022-08-17T05:29:35.445Z,10.73
2022-08-17T05:32:38.089Z,11.73
2022-08-17T05:35:00.406Z,11.33
2022-08-17T05:37:27.294Z,11.77
2022-08-17T05:39:54.083Z,13.60
2022-08-17T05:42:20.727Z,10.70
2022-08-17T05:44:47.216Z,13.47
2022-08-17T05:47:13.783Z,13.20
2022-08-17T05:49:40.294Z,12.30
2022-08-17T05:52:13.403Z,13.23
2022-08-17T05:54:57.312Z,12.00
2022-08-17T05:57:26.917Z,13.03
2022-08-17T06:00:06.608Z,11.60
2022-08-17T06:02:51.136Z,13.00
2022-08-17T06:05:27.005Z,10.77
2022-08-17T06:08:12.511Z,13.67
2022-08-17T06:10:38.977Z,8.90
2022-08-17T06:13:11.927Z,10.57
2022-08-17T06:16:03.137Z,9.20
2022-08-17T06:18:45.040Z,9.33
2022-08-17T06:21:17.921Z,9.50
2022-08-17T06:24:04.521Z,9.83
2022-08-17T06:26:42.459Z,10.80
2022-08-17T06:29:22.346Z,9.63
2022-08-17T06:31:48.915Z,9.20
2022-08-17T06:34:15.554Z,10.37
2022-08-17T06:37:01.636Z,8.73
2022-08-17T06:39:48.803Z,10.33
2022-08-17T06:42:54.882Z,13.93
2022-08-17T06:45:11.287Z,10.20
2022-08-17T06:47:47.475Z,8.33
2022-08-17T06:50:27.364Z,8.10
2022-08-17T06:53:03.988Z,10.70
2022-08-17T06:55:59.936Z,13.27
2022-08-17T06:58:31.221Z,8.73
2022-08-17T07:01:10.963Z,13.70
2022-08-17T07:03:49.791Z,11.80
2022-08-17T07:06:22.934Z,10.33
2022-08-17T07:08:52.652Z,8.63
2022-08-17T07:11:43.891Z,9.40
2022-08-17T07:14:20.073Z,9.60
2022-08-17T07:16:50.390Z,9.70
2022-08-17T07:19:20.228Z,14.53
2022-08-17T07:22:07.773Z,14.03
2022-08-17T07:24:45.109Z,13.67
2022-08-17T07:27:22.656Z,14.97
2022-08-17T07:29:53.713Z,17.27
2022-08-17T07:32:25.543Z,17.53
2022-08-17T07:35:07.536Z,39.23
2022-08-17T07:37:39.256Z,25.83
2022-08-17T07:40:28.540Z,19.87
2022-08-17T07:43:05.378Z,24.43
2022-08-17T07:45:50.831Z,22.37
2022-08-17T07:48:21.461Z,13.80
2022-08-17T07:50:50.456Z,12.80
2022-08-17T07:53:19.746Z,23.93
2022-08-17T07:55:46.322Z,9.80
2022-08-17T07:58:22.819Z,10.73
2022-08-17T08:01:04.938Z,9.63
2022-08-17T08:03:34.008Z,8.30
2022-08-17T08:06:03.123Z,6.93
2022-08-17T08:08:42.763Z,7.37
2022-08-17T08:11:12.557Z,7.27
2022-08-17T08:13:45.686Z,9.20
2022-08-17T08:16:19.972Z,8.97
2022-08-17T08:18:55.405Z,17.30
2022-08-17T08:21:51.214Z,9.30
2022-08-17T08:24:48.953Z,11.27
2022-08-17T08:27:33.653Z,8.50
2022-08-17T08:30:07.204Z,8.33
2022-08-17T08:32:36.893Z,7.63
2022-08-17T08:35:26.743Z,7.13
2022-08-17T08:38:13.494Z,8.40
2022-08-17T08:40:49.753Z,8.10
2022-08-17T08:43:37.664Z,9.67
2022-08-17T08:46:45.682Z,11.90
2022-08-17T08:50:01.436Z,10.37
2022-08-17T08:52:34.003Z,11.50
2022-08-17T08:55:39.302Z,7.07
2022-08-17T08:58:31.991Z,7.77
2022-08-17T09:00:58.655Z,7.23
2022-08-17T09:03:53.128Z,8.83
2022-08-17T09:06:39.072Z,6.07
2022-08-17T09:09:40.754Z,6.60
2022-08-17T09:12:30.027Z,6.00
2022-08-17T09:15:15.802Z,6.13
2022-08-17T09:17:55.730Z,9.07
2022-08-17T09:20:50.466Z,6.17
2022-08-17T09:23:38.040Z,7.83
2022-08-17T09:26:10.443Z,6.60
2022-08-17T09:28:39.502Z,9.33
2022-08-17T09:31:13.058Z,8.27
2022-08-17T09:33:48.198Z,7.63
2022-08-17T09:36:24.136Z,7.77
2022-08-17T09:39:01.016Z,7.00
2022-08-17T09:41:51.959Z,7.03
2022-08-17T09:44:23.400Z,7.60
2022-08-17T09:46:56.028Z,8.60
2022-08-17T09:49:29.401Z,9.33
2022-08-17T09:52:01.336Z,9.20
2022-08-17T09:54:39.504Z,8.17
2022-08-17T09:57:29.129Z,11.73
2022-08-17T09:59:57.322Z,8.30
2022-08-17T10:03:00.536Z,9.03
2022-08-17T10:05:47.135Z,8.30
2022-08-17T10:08:37.083Z,8.00
2022-08-17T10:11:05.691Z,9.87
2022-08-17T10:13:35.468Z,8.77
2022-08-17T10:16:08.071Z,11.70
2022-08-17T10:18:44.261Z,7.63
2022-08-17T10:21:31.860Z,8.40
2022-08-17T10:25:21.408Z,10.53
2022-08-17T10:27:42.996Z,10.40
2022-08-17T10:30:10.912Z,7.00
2022-08-17T10:32:56.235Z,10.30
2022-08-17T10:35:30.398Z,6.73
2022-08-17T10:38:33.985Z,10.03
2022-08-17T10:41:07.255Z,6.30
2022-08-17T10:44:38.182Z,6.80
2022-08-17T10:46:52.214Z,6.50
2022-08-17T10:49:18.752Z,6.53
2022-08-17T10:52:06.632Z,10.13
2022-08-17T10:54:36.178Z,10.10
2022-08-17T10:57:03.506Z,10.27
2022-08-17T10:59:36.206Z,6.60
2022-08-17T11:02:12.227Z,7.70
2022-08-17T11:05:07.669Z,6.27
2022-08-17T11:08:05.287Z,12.23
2022-08-17T11:10:53.601Z,6.97
2022-08-17T11:13:48.413Z,6.13
2022-08-17T11:16:24.473Z,7.03
2022-08-17T11:19:16.553Z,6.97
2022-08-17T11:22:06.643Z,6.57
2022-08-17T11:24:43.407Z,6.83
2022-08-17T11:27:22.374Z,7.97
2022-08-17T11:29:52.622Z,7.33
2022-08-17T11:32:32.962Z,5.90
2022-08-17T11:35:30.288Z,5.97
2022-08-17T11:38:20.481Z,6.27
2022-08-17T11:40:59.473Z,7.50
2022-08-17T11:43:44.248Z,6.27
2022-08-17T11:46:51.733Z,5.73
2022-08-17T11:49:48.881Z,6.03
2022-08-17T11:52:47.049Z,12.27
2022-08-17T11:55:35.689Z,9.23
2022-08-17T11:58:26.560Z,7.00
2022-08-17T12:01:03.013Z,9.37
2022-08-17T12:03:32.926Z,10.37
2022-08-17T12:06:30.771Z,8.43
2022-08-17T12:09:14.498Z,7.80
2022-08-17T12:11:55.488Z,13.23
2022-08-17T12:15:05.822Z,12.73
2022-08-17T12:17:41.389Z,7.90
2022-08-17T12:20:18.609Z,8.07
2022-08-17T12:23:04.946Z,8.97
2022-08-17T12:25:37.810Z,12.53
2022-08-17T12:28:07.572Z,9.73
2022-08-17T12:30:35.668Z,9.93
2022-08-17T12:33:02.526Z,10.57
2022-08-17T12:35:38.736Z,14.07
2022-08-17T12:38:32.182Z,10.87
2022-08-17T12:40:58.353Z,12.43
2022-08-17T12:43:27.682Z,12.53
2022-08-17T12:46:01.049Z,10.63
2022-08-17T12:48:39.988Z,11.07
2022-08-17T12:51:26.018Z,11.07
2022-08-17T12:53:54.931Z,10.57
2022-08-17T12:56:21.562Z,10.50
2022-08-17T12:58:53.392Z,10.10
2022-08-17T13:01:20.118Z,10.60
2022-08-17T13:03:51.355Z,10.63
2022-08-17T13:06:31.463Z,11.27
2022-08-17T13:09:11.623Z,11.17
2022-08-17T13:11:52.265Z,10.23
2022-08-17T13:14:19.365Z,11.17
2022-08-17T13:16:55.970Z,10.40
2022-08-17T13:19:39.897Z,11.40
2022-08-17T13:22:10.941Z,12.07
2022-08-17T13:24:38.039Z,10.57
2022-08-17T13:27:08.272Z,11.43
2022-08-17T13:29:39.056Z,10.63
2022-08-17T13:32:08.555Z,13.17
2022-08-17T13:35:11.803Z,10.53
2022-08-17T13:37:35.251Z,11.50
2022-08-17T13:40:08.088Z,11.83
2022-08-17T13:42:50.435Z,14.60
2022-08-17T13:45:35.344Z,10.80
2022-08-17T13:48:12.360Z,10.13
2022-08-17T13:50:45.749Z,13.03
2022-08-17T13:53:29.851Z,13.43
2022-08-17T13:56:34.962Z,13.80
2022-08-17T13:59:52.766Z,12.03
2022-08-17T14:02:13.378Z,13.00
2022-08-17T14:04:41.584Z,13.97
2022-08-17T14:07:12.417Z,11.63
2022-08-17T14:09:53.196Z,14.13
2022-08-17T14:12:25.497Z,13.30
2022-08-17T14:14:53.268Z,14.10
2022-08-17T14:17:20.087Z,13.60
2022-08-17T14:19:46.572Z,16.53
2022-08-17T14:22:34.615Z,16.03
2022-08-17T14:25:01.954Z,17.47
2022-08-17T14:27:31.812Z,17.40
2022-08-17T14:29:58.341Z,18.37
2022-08-17T14:32:31.237Z,19.37
2022-08-17T14:34:59.220Z,23.47
2022-08-17T14:37:27.918Z,18.13
2022-08-17T14:39:59.819Z,20.03
2022-08-17T14:42:28.931Z,16.40
2022-08-17T14:44:56.548Z,20.17
2022-08-17T14:47:23.050Z,23.30
2022-08-17T14:49:49.566Z,23.83
2022-08-17T14:52:20.749Z,20.03
2022-08-17T14:54:51.830Z,27.20
2022-08-17T14:57:33.327Z,25.13
2022-08-17T15:00:01.628Z,21.73
2022-08-17T15:02:29.786Z,25.77
2022-08-17T15:05:02.530Z,27.37
2022-08-17T15:07:30.493Z,33.13
2022-08-17T15:09:58.847Z,24.27
2022-08-17T15:12:32.424Z,25.03
2022-08-17T15:15:00.964Z,24.23
2022-08-17T15:17:44.718Z,23.93
2022-08-17T15:20:17.947Z,24.07
2022-08-17T15:22:46.282Z,24.23
2022-08-17T15:25:13.513Z,29.07
2022-08-17T15:27:40.429Z,24.10
2022-08-17T15:30:08.147Z,27.03
2022-08-17T15:32:38.123Z,26.83
2022-08-17T15:35:06.819Z,27.40
2022-08-17T15:37:33.579Z,27.63
2022-08-17T15:40:01.215Z,29.67
2022-08-17T15:42:29.012Z,27.47
2022-08-17T15:44:55.546Z,32.03
2022-08-17T15:47:22.690Z,31.10
2022-08-17T15:49:50.654Z,28.67
2022-08-17T15:52:21.483Z,30.40
2022-08-17T15:54:57.065Z,33.10
2022-08-17T15:57:26.601Z,31.10
2022-08-17T15:59:58.610Z,30.87
2022-08-17T16:03:43.436Z,32.83
2022-08-17T16:05:24.998Z,39.27
2022-08-17T16:07:52.483Z,33.17
2022-08-17T16:10:19.628Z,29.93
2022-08-17T16:12:47.800Z,33.87
2022-08-17T16:15:14.627Z,37.63
2022-08-17T16:17:41.517Z,36.53
2022-08-17T16:20:20.512Z,36.13
2022-08-17T16:22:48.704Z,34.90
2022-08-17T16:25:21.272Z,36.73
2022-08-17T16:27:54.189Z,38.47
2022-08-17T16:30:23.605Z,38.83
2022-08-17T16:32:53.996Z,42.43
2022-08-17T16:35:22.623Z,41.90
2022-08-17T16:37:49.501Z,39.40
2022-08-17T16:40:17.106Z,38.73
2022-08-17T16:42:46.774Z,42.37
2022-08-17T16:45:16.689Z,42.47
2022-08-17T16:47:43.657Z,43.70
2022-08-17T16:50:12.717Z,42.40
2022-08-17T16:52:40.025Z,45.13
2022-08-17T16:55:13.315Z,43.37
2022-08-17T16:57:50.368Z,39.63
2022-08-17T17:00:19.485Z,42.90
2022-08-17T17:02:47.744Z,44.13
2022-08-17T17:05:25.145Z,40.63
2022-08-17T17:08:07.649Z,36.73
2022-08-17T17:10:45.509Z,36.27
2022-08-17T17:13:27.152Z,39.00
2022-08-17T17:15:57.562Z,39.97
2022-08-17T17:18:32.550Z,43.30
2022-08-17T17:21:00.472Z,38.50
2022-08-17T17:23:48.516Z,51.07
2022-08-17T17:26:24.975Z,49.43
2022-08-17T17:29:18.317Z,45.27
2022-08-17T17:32:22.179Z,49.67
2022-08-17T17:34:54.089Z,46.90
2022-08-17T17:37:26.089Z,47.70
2022-08-17T17:39:56.536Z,50.53
2022-08-17T17:42:24.834Z,49.87
2022-08-17T17:45:16.728Z,50.47
2022-08-17T17:47:44.411Z,49.00
2022-08-17T17:50:11.139Z,49.43
2022-08-17T17:52:45.296Z,48.17
2022-08-17T17:55:19.163Z,49.27
2022-08-17T17:58:01.207Z,49.07
2022-08-17T18:00:58.787Z,47.80
2022-08-17T18:03:34.194Z,48.97
2022-08-17T18:06:06.805Z,48.20
2022-08-17T18:09:06.282Z,42.40
2022-08-17T18:12:03.461Z,48.90
2022-08-17T18:14:55.581Z,47.20
2022-08-17T18:17:22.179Z,47.70
2022-08-17T18:19:48.833Z,44.20
2022-08-17T18:22:19.401Z,46.03
2022-08-17T18:24:55.696Z,42.90
2022-08-17T18:27:51.815Z,43.43
2022-08-17T18:30:18.447Z,46.50
2022-08-17T18:32:46.481Z,47.40
2022-08-17T18:35:15.855Z,46.03
2022-08-17T18:37:57.566Z,43.93
2022-08-17T18:40:28.584Z,48.73
2022-08-17T18:42:59.565Z,46.03
2022-08-17T18:45:38.203Z,45.47
2022-08-17T18:48:07.163Z,43.17
2022-08-17T18:50:41.381Z,44.93
2022-08-17T18:53:30.411Z,41.60
2022-08-17T18:56:25.391Z,41.43
2022-08-17T18:59:11.135Z,41.23
2022-08-17T19:02:10.054Z,42.90
2022-08-17T19:04:59.327Z,40.17
2022-08-17T19:07:28.470Z,40.00
2022-08-17T19:10:07.116Z,39.20
2022-08-17T19:12:55.053Z,38.47
2022-08-17T19:15:38.622Z,43.63
2022-08-17T19:18:24.764Z,40.70
2022-08-17T19:20:58.603Z,44.73
2022-08-17T19:23:26.868Z,40.50
2022-08-17T19:25:55.601Z,37.13
2022-08-17T19:28:48.610Z,38.50
2022-08-17T19:31:28.055Z,41.23
2022-08-17T19:33:55.783Z,39.17
2022-08-17T19:36:22.373Z,35.80
2022-08-17T19:38:58.722Z,39.87
2022-08-17T19:41:44.258Z,40.57
2022-08-17T19:44:41.724Z,39.53
2022-08-17T19:47:30.735Z,37.77
2022-08-17T19:50:12.440Z,41.37
2022-08-17T19:53:07.544Z,39.10
2022-08-17T19:55:57.809Z,43.47
2022-08-17T19:58:51.527Z,45.40
2022-08-17T20:01:34.851Z,43.70
2022-08-17T20:04:04.626Z,44.43
2022-08-17T20:06:33.480Z,48.57
2022-08-17T20:09:21.697Z,52.00
2022-08-17T20:11:57.286Z,48.73
2022-08-17T20:14:41.262Z,43.40
2022-08-17T20:17:20.558Z,41.33
2022-08-17T20:19:53.450Z,42.20
2022-08-17T20:22:29.245Z,45.90
2022-08-17T20:25:30.045Z,46.13
2022-08-17T20:28:06.157Z,45.63
2022-08-17T20:30:37.843Z,43.27
2022-08-17T20:33:06.692Z,47.97
2022-08-17T20:35:39.235Z,46.63
2022-08-17T20:38:10.509Z,43.57
2022-08-17T20:40:40.144Z,45.07
2022-08-17T20:43:34.806Z,44.20
2022-08-17T20:46:35.322Z,45.83
2022-08-17T20:49:11.059Z,46.97
2022-08-17T20:52:01.193Z,47.83
2022-08-17T20:54:48.982Z,49.23
2022-08-17T20:57:31.175Z,48.80
2022-08-17T21:00:15.093Z,46.00
2022-08-17T21:03:28.584Z,43.83
2022-08-17T21:06:17.899Z,45.40
2022-08-17T21:08:58.432Z,47.67
2022-08-17T21:11:57.091Z,48.70
2022-08-17T21:14:29.666Z,45.40
2022-08-17T21:17:34.162Z,48.03
2022-08-17T21:20:12.941Z,48.23
2022-08-17T21:22:49.040Z,52.60
2022-08-17T21:25:35.955Z,52.10
2022-08-17T21:28:35.587Z,51.83
2022-08-17T21:31:08.548Z,52.13
2022-08-17T21:33:39.892Z,51.97
2022-08-17T21:36:12.590Z,49.97
2022-08-17T21:38:48.737Z,50.40
2022-08-17T21:41:24.161Z,49.90
2022-08-17T21:43:52.142Z,52.33
2022-08-17T21:46:31.754Z,51.90
2022-08-17T21:49:05.108Z,50.67
2022-08-17T21:51:44.730Z,56.83
2022-08-17T21:54:31.342Z,57.70
2022-08-17T21:57:00.189Z,52.83
2022-08-17T21:59:38.334Z,52.43
2022-08-17T22:02:08.118Z,50.80
2022-08-17T22:04:41.917Z,51.07
2022-08-17T22:07:11.360Z,54.23
2022-08-17T22:09:45.194Z,54.37
2022-08-17T22:12:16.417Z,53.47
2022-08-17T22:14:57.047Z,55.23
2022-08-17T22:17:26.568Z,56.87
2022-08-17T22:20:02.432Z,58.17
2022-08-17T22:22:56.658Z,59.97
2022-08-17T22:25:24.451Z,55.43
2022-08-17T22:27:54.392Z,57.40
2022-08-17T22:31:00.695Z,57.53
2022-08-17T22:33:36.980Z,52.23
2022-08-17T22:36:12.468Z,59.90
2022-08-17T22:38:41.111Z,60.50
2022-08-17T22:41:34.317Z,64.07
2022-08-17T22:44:27.670Z,62.40
2022-08-17T22:47:00.239Z,60.60
2022-08-17T22:50:00.478Z,61.63
2022-08-17T22:52:33.193Z,59.87
2022-08-17T22:55:22.082Z,58.70
2022-08-17T22:58:07.114Z,58.27
2022-08-17T23:00:41.135Z,61.70
2022-08-17T23:03:18.419Z,55.97
2022-08-17T23:06:03.543Z,58.17
2022-08-17T23:08:30.797Z,56.07
2022-08-17T23:10:59.706Z,55.37
2022-08-17T23:13:27.339Z,56.30
2022-08-17T23:15:53.912Z,57.57
2022-08-17T23:18:20.515Z,60.33
2022-08-17T23:20:47.093Z,64.17
2022-08-17T23:23:15.102Z,65.97
2022-08-17T23:25:44.485Z,64.93
2022-08-17T23:28:11.332Z,62.37
2022-08-17T23:30:46.000Z,68.03
2022-08-17T23:33:21.540Z,67.80
2022-08-17T23:35:48.186Z,64.43
2022-08-17T23:38:14.655Z,64.40
2022-08-17T23:40:41.218Z,67.97
2022-08-17T23:43:24.630Z,66.53
2022-08-17T23:45:57.898Z,69.57
2022-08-17T23:48:35.938Z,68.20
2022-08-17T23:51:18.944Z,68.73
2022-08-17T23:53:48.457Z,68.07
2022-08-17T23:56:15.632Z,72.03
2022-08-17T23:58:43.620Z,73.87
